createdAt,value
2018-04-12T00:00:04.373Z,6.70
2018-04-12T00:02:30.958Z,7.53
2018-04-12T00:04:57.540Z,7.57
2018-04-12T00:07:24.105Z,7.80
2018-04-12T00:09:50.684Z,7.03
2018-04-12T00:12:17.253Z,6.83
2018-04-12T00:14:43.842Z,7.03
2018-04-12T00:17:10.410Z,6.70
2018-04-12T00:19:36.985Z,6.63
2018-04-12T00:22:03.558Z,7.27
2018-04-12T00:24:30.151Z,7.90
2018-04-12T00:26:56.730Z,7.60
2018-04-12T00:29:23.305Z,7.40
2018-04-12T00:31:49.881Z,7.70
2018-04-12T00:34:16.457Z,7.10
2018-04-12T00:36:43.029Z,7.33
2018-04-12T00:39:09.605Z,7.03
2018-04-12T00:41:36.182Z,6.10
2018-04-12T00:44:02.757Z,7.10
2018-04-12T00:46:29.325Z,6.93
2018-04-12T00:48:55.925Z,7.20
2018-04-12T00:51:22.505Z,7.07
2018-04-12T00:53:55.084Z,7.33
2018-04-12T00:56:21.660Z,7.33
2018-04-12T00:58:48.227Z,7.70
2018-04-12T01:01:14.805Z,7.63
2018-04-12T01:03:41.374Z,7.60
2018-04-12T01:06:07.948Z,7.80
2018-04-12T01:08:34.519Z,8.90
2018-04-12T01:11:01.090Z,8.40
2018-04-12T01:13:27.661Z,8.27
2018-04-12T01:15:54.240Z,8.90
2018-04-12T01:18:20.809Z,8.73
2018-04-12T01:20:47.385Z,8.33
2018-04-12T01:23:13.985Z,8.00
2018-04-12T01:25:40.561Z,7.67
2018-04-12T01:28:07.141Z,7.70
2018-04-12T01:30:33.709Z,7.60
2018-04-12T01:33:06.021Z,7.57
2018-04-12T01:35:32.597Z,6.67
2018-04-12T01:37:59.174Z,6.60
2018-04-12T01:40:26.484Z,6.67
2018-04-12T01:42:53.067Z,6.60
2018-04-12T01:45:19.633Z,6.33
2018-04-12T01:47:46.562Z,6.30
2018-04-12T01:50:13.130Z,6.70
2018-04-12T01:52:39.710Z,6.37
2018-04-12T01:55:06.290Z,5.67
2018-04-12T01:57:32.867Z,6.17
2018-04-12T01:59:59.437Z,5.57
2018-04-12T02:02:26.005Z,5.77
2018-04-12T02:04:52.609Z,5.80
2018-04-12T02:07:19.177Z,5.50
2018-04-12T02:09:45.746Z,5.50
2018-04-12T02:12:12.317Z,5.77
2018-04-12T02:14:38.886Z,6.13
2018-04-12T02:17:05.461Z,6.10
2018-04-12T02:19:32.035Z,6.17
2018-04-12T02:21:58.685Z,6.17
2018-04-12T02:24:25.249Z,5.67
2018-04-12T02:26:51.833Z,5.90
2018-04-12T02:29:18.389Z,5.33
2018-04-12T02:31:44.968Z,5.40
2018-04-12T02:34:11.546Z,5.70
2018-04-12T02:36:38.121Z,5.87
2018-04-12T02:39:04.691Z,5.33
2018-04-12T02:41:32.133Z,6.13
2018-04-12T02:43:58.719Z,5.40
2018-04-12T02:46:25.266Z,5.40
2018-04-12T02:48:51.834Z,6.13
2018-04-12T02:51:18.420Z,5.80
2018-04-12T02:53:45.005Z,5.03
2018-04-12T02:56:11.599Z,5.90
2018-04-12T02:58:38.165Z,5.50
2018-04-12T03:01:04.736Z,5.20
2018-04-12T03:03:31.314Z,5.87
2018-04-12T03:05:57.893Z,5.77
2018-04-12T03:08:25.014Z,5.33
2018-04-12T03:10:51.582Z,4.80
2018-04-12T03:13:18.154Z,5.57
2018-04-12T03:15:44.728Z,5.97
2018-04-12T03:18:11.298Z,6.03
2018-04-12T03:20:37.897Z,5.80
2018-04-12T03:23:04.465Z,5.70
2018-04-12T03:25:31.058Z,5.90
2018-04-12T03:27:57.617Z,5.37
2018-04-12T03:30:24.185Z,5.37
2018-04-12T03:32:50.758Z,6.60
2018-04-12T03:35:17.333Z,6.60
2018-04-12T03:37:43.918Z,6.30
2018-04-12T03:40:10.501Z,6.27
2018-04-12T03:42:37.390Z,6.63
2018-04-12T03:45:03.957Z,6.50
2018-04-12T03:47:30.532Z,6.63
2018-04-12T03:49:57.106Z,6.67
2018-04-12T03:52:23.678Z,6.47
2018-04-12T03:54:50.354Z,7.00
2018-04-12T03:57:16.938Z,6.77
2018-04-12T03:59:43.513Z,7.13
2018-04-12T04:02:10.173Z,6.77
2018-04-12T04:04:36.741Z,7.40
2018-04-12T04:07:03.314Z,6.80
2018-04-12T04:09:29.904Z,7.33
2018-04-12T04:11:56.478Z,6.57
2018-04-12T04:14:28.891Z,7.23
2018-04-12T04:17:01.261Z,6.70
2018-04-12T04:19:33.737Z,7.60
2018-04-12T04:22:00.318Z,7.70
2018-04-12T04:24:26.887Z,8.00
2018-04-12T04:26:53.457Z,8.20
2018-04-12T04:29:20.040Z,6.67
2018-04-12T04:31:46.667Z,7.23
2018-04-12T04:34:13.205Z,8.00
2018-04-12T04:36:39.777Z,7.40
2018-04-12T04:39:06.347Z,7.27
2018-04-12T04:41:32.925Z,7.67
2018-04-12T04:43:59.493Z,7.53
2018-04-12T04:46:26.076Z,7.93
2018-04-12T04:48:52.641Z,7.80
2018-04-12T04:51:19.218Z,8.33
2018-04-12T04:53:45.790Z,8.00
2018-04-12T04:56:12.374Z,8.83
2018-04-12T04:58:38.951Z,7.17
2018-04-12T05:01:05.527Z,7.70
2018-04-12T05:03:32.094Z,7.80
2018-04-12T05:05:58.685Z,7.50
2018-04-12T05:08:25.264Z,8.00
2018-04-12T05:10:51.829Z,7.30
2018-04-12T05:13:18.405Z,7.70
2018-04-12T05:15:44.980Z,7.50
2018-04-12T05:18:11.566Z,8.47
2018-04-12T05:20:38.134Z,8.00
2018-04-12T05:23:04.751Z,7.73
2018-04-12T05:25:31.329Z,8.60
2018-04-12T05:27:57.910Z,9.20
2018-04-12T05:30:24.485Z,9.10
2018-04-12T05:32:51.056Z,8.37
2018-04-12T05:35:17.676Z,9.00
2018-04-12T05:37:44.253Z,8.77
2018-04-12T05:40:10.834Z,9.40
2018-04-12T05:42:37.400Z,9.37
2018-04-12T05:45:03.973Z,9.60
2018-04-12T05:47:30.548Z,9.17
2018-04-12T05:49:57.127Z,8.40
2018-04-12T05:52:23.741Z,8.57
2018-04-12T05:54:50.355Z,9.40
2018-04-12T05:57:16.933Z,9.30
2018-04-12T05:59:43.505Z,8.90
2018-04-12T06:02:10.461Z,8.20
2018-04-12T06:04:37.041Z,9.60
2018-04-12T06:07:03.609Z,9.40
2018-04-12T06:09:30.185Z,9.93
2018-04-12T06:11:56.914Z,9.57
2018-04-12T06:14:23.507Z,9.30
2018-04-12T06:16:50.082Z,9.70
2018-04-12T06:19:16.661Z,9.30
2018-04-12T06:24:16.422Z,9.87
2018-04-12T06:26:43.012Z,9.40
2018-04-12T06:29:09.613Z,10.30
2018-04-12T06:31:36.171Z,11.20
2018-04-12T06:34:02.753Z,10.67
2018-04-12T06:36:29.325Z,10.77
2018-04-12T06:38:56.213Z,10.90
2018-04-12T06:41:22.805Z,11.30
2018-04-12T06:43:49.403Z,11.40
2018-04-12T06:46:15.989Z,11.43
2018-04-12T06:48:42.558Z,11.33
2018-04-12T06:51:09.222Z,11.97
2018-04-12T06:53:35.777Z,12.70
2018-04-12T06:56:02.348Z,12.50
2018-04-12T06:58:28.925Z,13.23
2018-04-12T07:00:55.501Z,12.47
2018-04-12T07:03:22.393Z,11.60
2018-04-12T07:05:49.005Z,12.90
2018-04-12T07:08:15.545Z,14.07
2018-04-12T07:10:42.162Z,14.20
2018-04-12T07:13:08.721Z,14.90
2018-04-12T07:15:35.322Z,13.30
2018-04-12T07:18:01.905Z,13.00
2018-04-12T07:20:28.481Z,15.70
2018-04-12T07:22:55.066Z,25.30
2018-04-12T07:25:21.636Z,13.00
2018-04-12T07:27:48.221Z,14.00
2018-04-12T07:30:14.802Z,13.73
2018-04-12T07:32:41.466Z,13.30
2018-04-12T07:35:08.097Z,14.57
2018-04-12T07:37:34.637Z,13.77
2018-04-12T07:40:01.226Z,13.07
2018-04-12T07:42:27.793Z,14.20
2018-04-12T07:44:54.370Z,15.10
2018-04-12T07:47:20.955Z,15.07
2018-04-12T07:49:47.532Z,13.73
2018-04-12T07:52:14.121Z,15.17
2018-04-12T07:54:40.693Z,14.30
2018-04-12T07:57:07.269Z,14.80
2018-04-12T07:59:33.869Z,15.47
2018-04-12T08:02:00.501Z,15.07
2018-04-12T08:04:27.051Z,15.60
2018-04-12T08:06:53.631Z,17.13
2018-04-12T08:09:20.212Z,15.90
2018-04-12T08:11:46.790Z,16.47
2018-04-12T08:14:13.361Z,16.67
2018-04-12T08:16:40.242Z,16.93
2018-04-12T08:19:06.818Z,16.90
2018-04-12T08:21:33.393Z,17.20
2018-04-12T08:23:59.981Z,17.83
2018-04-12T08:26:26.578Z,17.60
2018-04-12T08:28:53.172Z,18.03
2018-04-12T08:31:19.737Z,19.40
2018-04-12T08:33:46.312Z,19.90
2018-04-12T08:36:12.894Z,21.67
2018-04-12T08:38:39.473Z,23.87
2018-04-12T08:41:06.328Z,22.40
2018-04-12T08:43:32.897Z,25.30
2018-04-12T08:45:59.501Z,27.10
2018-04-12T08:48:26.054Z,26.60
2018-04-12T08:50:52.625Z,25.17
2018-04-12T08:53:19.213Z,26.70
2018-04-12T08:55:45.788Z,27.13
2018-04-12T08:58:12.364Z,29.10
2018-04-12T09:00:38.937Z,26.70
2018-04-12T09:03:05.508Z,29.77
2018-04-12T09:05:32.163Z,28.70
2018-04-12T09:07:58.748Z,29.40
2018-04-12T09:10:25.318Z,26.90
2018-04-12T09:12:51.900Z,28.97
2018-04-12T09:15:18.562Z,30.90
2018-04-12T09:17:45.142Z,29.20
2018-04-12T09:20:11.745Z,30.00
2018-04-12T09:22:38.322Z,29.53
2018-04-12T09:25:04.881Z,27.70
2018-04-12T09:27:31.461Z,29.77
2018-04-12T09:29:58.058Z,30.97
2018-04-12T09:32:24.633Z,30.90
2018-04-12T09:34:51.214Z,31.23
2018-04-12T09:37:17.798Z,31.27
2018-04-12T09:39:44.374Z,29.83
2018-04-12T09:42:11.000Z,31.53
2018-04-12T09:44:37.546Z,30.80
2018-04-12T09:47:04.126Z,31.63
2018-04-12T09:49:30.708Z,30.63
2018-04-12T09:51:57.278Z,27.90
2018-04-12T09:54:23.865Z,30.77
2018-04-12T09:56:50.450Z,29.43
2018-04-12T09:59:17.045Z,31.67
2018-04-12T10:01:49.290Z,30.77
2018-04-12T10:04:16.618Z,29.43
2018-04-12T10:06:43.193Z,29.17
2018-04-12T10:09:14.646Z,28.47
2018-04-12T10:11:41.221Z,28.57
2018-04-12T10:14:07.814Z,23.90
2018-04-12T10:16:34.391Z,28.83
2018-04-12T10:19:00.958Z,27.00
2018-04-12T10:21:27.533Z,27.80
2018-04-12T10:23:54.105Z,27.70
2018-04-12T10:26:20.692Z,27.70
2018-04-12T10:28:48.247Z,26.10
2018-04-12T10:31:14.817Z,25.27
2018-04-12T10:33:41.399Z,26.20
2018-04-12T10:36:07.969Z,25.30
2018-04-12T10:38:34.559Z,24.77
2018-04-12T10:41:01.133Z,25.47
2018-04-12T10:43:27.713Z,25.70
2018-04-12T10:45:54.293Z,24.10
2018-04-12T10:48:20.876Z,25.70
2018-04-12T10:50:47.501Z,26.10
2018-04-12T10:53:14.072Z,26.40
2018-04-12T10:55:40.651Z,24.50
2018-04-12T10:58:07.233Z,25.13
2018-04-12T11:00:33.810Z,26.47
2018-04-12T11:03:00.411Z,25.37
2018-04-12T11:05:26.981Z,26.30
2018-04-12T11:07:53.557Z,25.00
2018-04-12T11:10:20.143Z,25.20
2018-04-12T11:12:46.713Z,25.37
2018-04-12T11:15:13.313Z,25.10
2018-04-12T11:17:39.991Z,24.53
2018-04-12T11:20:06.558Z,26.40
2018-04-12T11:22:33.165Z,25.20
2018-04-12T11:24:59.741Z,26.53
2018-04-12T11:27:26.335Z,27.03
2018-04-12T11:29:52.935Z,28.10
2018-04-12T11:32:19.477Z,26.93
2018-04-12T11:34:46.057Z,26.13
2018-04-12T11:37:12.649Z,26.30
2018-04-12T11:39:39.234Z,26.77
2018-04-12T11:42:05.805Z,26.60
2018-04-12T11:44:32.380Z,26.00
2018-04-12T11:46:58.969Z,25.20
2018-04-12T11:49:25.563Z,23.63
2018-04-12T11:51:52.156Z,26.50
2018-04-12T11:54:18.729Z,23.47
2018-04-12T11:56:45.374Z,22.20
2018-04-12T11:59:11.955Z,22.60
2018-04-12T12:01:38.589Z,23.20
2018-04-12T12:04:05.135Z,24.90
2018-04-12T12:06:31.701Z,23.17
2018-04-12T12:08:58.274Z,24.33
2018-04-12T12:11:24.856Z,23.47
2018-04-12T12:13:51.449Z,21.80
2018-04-12T12:16:18.104Z,22.00
2018-04-12T12:18:44.681Z,23.00
2018-04-12T12:21:11.262Z,21.40
2018-04-12T12:23:37.841Z,22.60
2018-04-12T12:26:04.418Z,22.57
2018-04-12T12:28:31.050Z,23.30
2018-04-12T12:30:57.576Z,21.67
2018-04-12T12:33:24.168Z,22.83
2018-04-12T12:35:50.745Z,21.20
2018-04-12T12:38:17.317Z,20.27
2018-04-12T12:40:43.905Z,23.83
2018-04-12T12:43:10.476Z,22.43
2018-04-12T12:45:37.049Z,22.30
2018-04-12T12:48:03.666Z,23.30
2018-04-12T12:50:30.232Z,23.13
2018-04-12T12:52:56.810Z,24.90
2018-04-12T12:55:23.393Z,23.30
2018-04-12T12:57:49.973Z,25.00
2018-04-12T13:00:16.547Z,22.90
2018-04-12T13:02:43.138Z,23.10
2018-04-12T13:05:09.725Z,23.63
2018-04-12T13:07:36.297Z,22.50
2018-04-12T13:10:02.974Z,22.03
2018-04-12T13:12:29.532Z,21.07
2018-04-12T13:14:56.190Z,23.60
2018-04-12T13:17:22.757Z,23.40
2018-04-12T13:19:49.345Z,21.47
2018-04-12T13:22:15.917Z,16.80
2018-04-12T13:24:42.542Z,16.03
2018-04-12T13:27:09.129Z,16.30
2018-04-12T13:29:35.711Z,16.73
2018-04-12T13:32:02.319Z,17.70
2018-04-12T13:34:28.889Z,18.17
2018-04-12T13:36:55.482Z,18.57
2018-04-12T13:39:22.068Z,17.93
2018-04-12T13:41:48.653Z,17.20
2018-04-12T13:44:15.247Z,14.70
2018-04-12T13:46:41.800Z,15.63
2018-04-12T13:49:08.385Z,15.93
2018-04-12T13:51:34.957Z,14.50
2018-04-12T13:54:01.568Z,14.50
2018-04-12T13:56:28.279Z,15.40
2018-04-12T13:58:54.845Z,15.37
2018-04-12T14:01:21.418Z,14.70
2018-04-12T14:03:48.026Z,13.80
2018-04-12T14:06:14.582Z,13.80
2018-04-12T14:08:41.165Z,15.13
2018-04-12T14:11:07.747Z,15.07
2018-04-12T14:13:34.322Z,14.20
2018-04-12T14:16:00.913Z,15.80
2018-04-12T14:18:27.494Z,16.60
2018-04-12T14:20:54.077Z,15.37
2018-04-12T14:23:20.649Z,13.93
2018-04-12T14:25:47.228Z,13.73
2018-04-12T14:28:13.815Z,12.93
2018-04-12T14:30:40.393Z,13.13
2018-04-12T14:33:06.972Z,12.97
2018-04-12T14:35:33.560Z,13.00
2018-04-12T14:38:00.390Z,12.90
2018-04-12T14:40:26.962Z,12.27
2018-04-12T14:42:53.533Z,13.60
2018-04-12T14:45:20.121Z,14.03
2018-04-12T14:47:46.694Z,12.83
2018-04-12T14:50:13.273Z,12.00
2018-04-12T14:52:39.864Z,13.63
2018-04-12T14:55:06.445Z,12.40
2018-04-12T14:57:33.022Z,11.97
2018-04-12T14:59:59.597Z,12.00
2018-04-12T15:02:26.181Z,10.77
2018-04-12T15:04:52.757Z,9.90
2018-04-12T15:07:19.333Z,9.53
2018-04-12T15:09:45.912Z,10.80
2018-04-12T15:12:12.490Z,9.73
2018-04-12T15:14:39.069Z,10.20
2018-04-12T15:17:05.640Z,10.70
2018-04-12T15:19:32.208Z,9.17
2018-04-12T15:21:58.785Z,10.57
2018-04-12T15:24:25.368Z,9.20
2018-04-12T15:26:51.945Z,10.00
2018-04-12T15:29:18.513Z,9.77
2018-04-12T15:31:45.090Z,8.90
2018-04-12T15:34:11.663Z,10.33
2018-04-12T15:36:38.229Z,8.77
2018-04-12T15:39:04.801Z,9.80
2018-04-12T15:41:31.387Z,9.70
2018-04-12T15:43:58.074Z,8.57
2018-04-12T15:46:24.633Z,9.43
2018-04-12T15:48:51.218Z,10.23
2018-04-12T15:51:17.794Z,9.67
2018-04-12T15:53:44.358Z,9.90
2018-04-12T15:56:10.938Z,9.87
2018-04-12T15:58:37.509Z,8.87
2018-04-12T16:01:04.091Z,8.33
2018-04-12T16:03:30.653Z,8.80
2018-04-12T16:05:57.233Z,7.90
2018-04-12T16:08:23.804Z,8.20
2018-04-12T16:10:50.374Z,8.27
2018-04-12T16:13:16.949Z,9.40
2018-04-12T16:15:43.522Z,8.20
2018-04-12T16:18:10.093Z,8.87
2018-04-12T16:20:36.663Z,7.50
2018-04-12T16:23:03.238Z,8.73
2018-04-12T16:25:29.813Z,7.90
2018-04-12T16:27:56.385Z,8.40
2018-04-12T16:30:22.967Z,8.20
2018-04-12T16:32:49.532Z,8.33
2018-04-12T16:35:16.096Z,8.37
2018-04-12T16:37:42.669Z,8.90
2018-04-12T16:40:09.241Z,8.43
2018-04-12T16:42:35.817Z,8.87
2018-04-12T16:45:02.391Z,8.03
2018-04-12T16:47:28.961Z,8.20
2018-04-12T16:49:55.529Z,8.17
2018-04-12T16:52:22.094Z,6.80
2018-04-12T16:54:48.662Z,7.53
2018-04-12T16:57:15.232Z,6.63
2018-04-12T16:59:41.821Z,7.47
2018-04-12T17:02:08.385Z,8.10
2018-04-12T17:04:34.977Z,7.37
2018-04-12T17:07:01.545Z,6.70
2018-04-12T17:09:28.114Z,6.33
2018-04-12T17:11:54.693Z,7.90
2018-04-12T17:14:21.265Z,7.20
2018-04-12T17:16:47.841Z,8.10
2018-04-12T17:19:14.411Z,7.73
2018-04-12T17:21:40.986Z,8.00
2018-04-12T17:24:07.554Z,7.97
2018-04-12T17:26:34.121Z,8.23
2018-04-12T17:29:00.707Z,8.87
2018-04-12T17:31:27.257Z,7.70
2018-04-12T17:33:53.836Z,8.30
2018-04-12T17:36:20.409Z,7.93
2018-04-12T17:38:47.254Z,8.13
2018-04-12T17:41:13.830Z,8.40
2018-04-12T17:43:40.458Z,8.43
2018-04-12T17:46:07.085Z,8.27
2018-04-12T17:48:33.663Z,8.10
2018-04-12T17:51:00.257Z,8.00
2018-04-12T17:53:26.833Z,7.60
2018-04-12T17:55:53.905Z,7.10
2018-04-12T17:58:20.501Z,6.80
2018-04-12T18:00:47.077Z,7.10
2018-04-12T18:03:13.682Z,6.50
2018-04-12T18:05:40.460Z,7.10
2018-04-12T18:08:07.086Z,6.43
2018-04-12T18:10:33.649Z,7.10
2018-04-12T18:13:00.253Z,6.50
2018-04-12T18:15:26.847Z,6.43
2018-04-12T18:17:53.384Z,6.27
2018-04-12T18:20:19.965Z,6.67
2018-04-12T18:22:46.533Z,6.80
2018-04-12T18:25:13.109Z,6.10
2018-04-12T18:27:39.674Z,7.20
2018-04-12T18:30:06.262Z,11.13
2018-04-12T18:32:32.921Z,10.60
2018-04-12T18:34:59.442Z,9.77
2018-04-12T18:37:26.022Z,9.27
2018-04-12T18:39:52.597Z,10.00
2018-04-12T18:42:19.173Z,9.20
2018-04-12T18:44:45.744Z,8.10
2018-04-12T18:47:12.322Z,8.00
2018-04-12T18:49:38.921Z,7.47
2018-04-12T18:52:05.485Z,7.23
2018-04-12T18:54:32.065Z,7.10
2018-04-12T18:56:58.622Z,7.20
2018-04-12T18:59:25.205Z,7.20
2018-04-12T19:01:51.797Z,7.10
2018-04-12T19:04:18.377Z,7.10
2018-04-12T19:06:44.937Z,6.77
2018-04-12T19:09:11.509Z,6.30
2018-04-12T19:11:38.070Z,7.10
2018-04-12T19:14:04.633Z,7.57
2018-04-12T19:16:31.209Z,7.27
2018-04-12T19:18:57.782Z,7.63
2018-04-12T19:21:24.361Z,6.60
2018-04-12T19:23:50.949Z,7.20
2018-04-12T19:26:17.600Z,7.30
2018-04-12T19:28:44.167Z,7.07
2018-04-12T19:31:10.752Z,7.63
2018-04-12T19:33:37.318Z,7.10
2018-04-12T19:36:03.887Z,6.93
2018-04-12T19:38:30.458Z,6.70
2018-04-12T19:40:57.026Z,6.87
2018-04-12T19:43:23.601Z,7.23
2018-04-12T19:45:50.170Z,7.00
2018-04-12T19:48:16.736Z,6.30
2018-04-12T19:50:43.318Z,7.17
2018-04-12T19:53:09.886Z,6.70
2018-04-12T19:55:36.461Z,7.00
2018-04-12T19:58:03.033Z,6.67
2018-04-12T20:00:29.598Z,6.57
2018-04-12T20:02:56.173Z,6.40
2018-04-12T20:05:22.743Z,6.40
2018-04-12T20:07:49.307Z,6.23
2018-04-12T20:10:15.882Z,6.87
2018-04-12T20:12:42.469Z,5.93
2018-04-12T20:15:09.045Z,6.30
2018-04-12T20:17:35.610Z,6.70
2018-04-12T20:20:02.192Z,7.03
2018-04-12T20:22:28.813Z,7.43
2018-04-12T20:24:55.328Z,6.80
2018-04-12T20:27:21.901Z,6.80
2018-04-12T20:29:48.473Z,6.97
2018-04-12T20:32:15.041Z,6.17
2018-04-12T20:34:41.610Z,6.60
2018-04-12T20:37:08.185Z,6.07
2018-04-12T20:39:34.779Z,6.40
2018-04-12T20:42:01.333Z,6.40
2018-04-12T20:44:27.897Z,6.03
2018-04-12T20:46:54.460Z,6.60
2018-04-12T20:49:21.034Z,6.43
2018-04-12T20:51:47.603Z,6.20
2018-04-12T20:54:14.180Z,6.30
2018-04-12T20:56:40.741Z,6.20
2018-04-12T20:59:07.313Z,6.20
2018-04-12T21:01:33.905Z,6.50
2018-04-12T21:04:00.487Z,6.07
2018-04-12T21:06:27.057Z,6.00
2018-04-12T21:08:53.616Z,5.70
2018-04-12T21:11:20.200Z,6.47
2018-04-12T21:13:46.765Z,6.37
2018-04-12T21:16:13.342Z,6.93
2018-04-12T21:18:39.909Z,6.60
2018-04-12T21:21:06.485Z,6.60
2018-04-12T21:23:33.053Z,6.70
2018-04-12T21:25:59.639Z,6.10
2018-04-12T21:28:26.205Z,6.93
2018-04-12T21:30:52.769Z,7.40
2018-04-12T21:33:19.345Z,7.13
2018-04-12T21:35:45.915Z,7.13
2018-04-12T21:38:12.486Z,7.13
2018-04-12T21:40:39.051Z,7.40
2018-04-12T21:43:05.622Z,7.27
2018-04-12T21:45:32.189Z,6.37
2018-04-12T21:47:59.063Z,6.97
2018-04-12T21:50:25.626Z,6.60
2018-04-12T21:52:52.189Z,6.70
2018-04-12T21:55:18.767Z,7.23
2018-04-12T21:57:45.330Z,7.13
2018-04-12T22:00:11.903Z,7.23
2018-04-12T22:02:38.480Z,7.47
2018-04-12T22:05:05.046Z,7.00
2018-04-12T22:07:31.638Z,7.43
2018-04-12T22:09:58.210Z,7.93
2018-04-12T22:12:24.785Z,7.90
2018-04-12T22:14:51.346Z,7.77
2018-04-12T22:17:17.922Z,7.20
2018-04-12T22:19:44.489Z,7.40
2018-04-12T22:22:11.059Z,8.10
2018-04-12T22:24:37.621Z,8.60
2018-04-12T22:27:04.196Z,8.10
2018-04-12T22:29:30.765Z,8.43
2018-04-12T22:31:57.357Z,8.80
2018-04-12T22:34:23.937Z,8.80
2018-04-12T22:36:50.493Z,8.53
2018-04-12T22:39:17.069Z,8.60
2018-04-12T22:41:43.637Z,8.47
2018-04-12T22:44:10.225Z,8.50
2018-04-12T22:46:36.807Z,8.10
2018-04-12T22:49:03.366Z,8.60
2018-04-12T22:51:29.941Z,8.60
2018-04-12T22:53:56.655Z,9.07
2018-04-12T22:56:23.224Z,8.20
2018-04-12T22:58:49.786Z,8.40
2018-04-12T23:01:16.354Z,8.30
2018-04-12T23:03:42.929Z,8.80
2018-04-12T23:06:09.500Z,8.67
2018-04-12T23:08:36.081Z,8.70
2018-04-12T23:11:02.672Z,9.03
2018-04-12T23:13:29.239Z,8.63
2018-04-12T23:15:55.814Z,8.30
2018-04-12T23:18:22.388Z,8.53
2018-04-12T23:20:48.949Z,8.23
2018-04-12T23:23:15.525Z,8.30
2018-04-12T23:25:42.098Z,8.80
2018-04-12T23:28:08.669Z,8.67
2018-04-12T23:30:35.237Z,8.77
2018-04-12T23:33:01.821Z,8.37
2018-04-12T23:35:28.373Z,8.20
2018-04-12T23:37:54.950Z,9.00
2018-04-12T23:40:21.544Z,8.90
2018-04-12T23:42:48.089Z,8.77
2018-04-12T23:45:14.665Z,8.90
2018-04-12T23:47:42.274Z,8.77
2018-04-12T23:50:08.898Z,8.80
2018-04-12T23:52:35.932Z,9.50
2018-04-12T23:55:02.526Z,8.57
2018-04-12T23:57:29.093Z,9.03
2018-04-12T23:59:55.674Z,9.70
